KPSP/PSP METAR and TAF weather

Enter ICAO airport designator
Station Type Date Time Source
KPSP METAR 2021/04/13 07:53 UTC NOAA

KPSP 130753Z AUTO 30005KT 10SM CLR 21/07 A2970 RMK AO2 SLP054 T02060072 403390178


Station Type Date Time Source
KPSP Decoded METAR 2021/04/13 07:53 UTC NOAA

PALM SPRINGS REGIONAL AIRPORT , CA, United States (KPSP) 33-50N 116-30W 135M
Apr 13, 2021 - 03:53 AM EDT / 2021.04.13 0753 UTC
Wind: from the WNW (300 degrees) at 6 MPH (5 KT):0
Visibility: 10 mile(s):0
Sky conditions: clear
Temperature: 69.1 F (20.6 C)
Dew Point: 45.0 F (7.2 C)
Relative Humidity: 41%
Pressure (altimeter): 29.7 in. Hg (1005 hPa)
ob: KPSP 130753Z AUTO 30005KT 10SM CLR 21/07 A2970 RMK AO2 SLP054 T02060072 403390178
cycle: 8

Station Type Date Time Source
KPSP TAF 2021/04/13 06:22 UTC NOAA

TAF KPSP 130520Z 1306/1406 34013G20KT P6SM SKC
FM130700 33005KT P6SM SKC
FM131900 34017G27KT P6SM SKC

Example: see airport list